Yantic, Connecticut
Current Conditions -  °F | °C
As of 6:52 PM on Sunday 21 Dec 2014 (Local Time) from KIJD Reporting Station
Overcast Overcast  
Wind Chill: 30°   Ceiling: 4100
Heat Index: 34°   Visibility: 10mi
Dew Point: 29°   Wind: 5mph
Humidity: 82%   Direction: 20°NNE
Pressure: 30.33"   Gusts: NA
Location:  41.56°N, 72.12°W
Report Text: KIJD 212352Z AUTO 02004KT 10SM SCT015 BKN041 OVC048 01/M02 A3033 RMK AO2 SLP273 T00111017 10022 20011 51009
Loading
Personal Weather Stations






























Interactive Weather Map New forecast layout! Learn more

10-Day Weather Forecast

Advertisements
Track Severe Weather on mobile